Flight Track Log - Related Links

Times and Time Zones

All times are in EDT time to prevent confusion due to time zone crossing. See the JBU917 flight status page for this flight to view local times or setup timezone preferences in your user account.


Time Position Orientation Groundspeed Altitude Reporting Facility
EDT Latitude Longitude Course Direction KTS MPH feet Rate Location/Type
Fri 09:39:53 PM 40.6167 -73.8000 323° Northwest 139 160 1,500  Level New York TRACON
Fri 09:40:59 PM 40.5667 -73.7833 166° South 221 254 3,500 2,400 Climbing New York TRACON
Fri 09:41:53 PM 40.6000 -73.7167 57° Northeast 255 293 6,300 3,150 Climbing New York TRACON
Fri 09:42:00 PM 40.8483 -74.1799 304° West  Level FlightAware Approximate
Fri 09:42:59 PM 40.6500 -73.6667 37° Northeast 260 299 9,800  Level New York TRACON
Fri 09:43:00 PM 40.9044 -74.2856 306° West  Level FlightAware Approximate
Fri 09:43:59 PM 40.7167 -73.6000 37° Northeast 270 311 12,400  Level New York TRACON
Fri 09:44:00 PM 40.9615 -74.3905 306° West  Level FlightAware Approximate
Fri 09:44:59 PM 40.8000 -73.6000 360° North 283 326 14,900  Level New York TRACON
Fri 09:45:00 PM 41.0228 -74.4894 323° Northwest  Level FlightAware Approximate
Fri 09:45:53 PM 40.8667 -73.6167 349° North 296 341 17,000  Level New York TRACON
Fri 09:46:53 PM 40.9167 -73.7000 308° West 349 402 17,000  Level New York TRACON
Fri 09:49:18 PM 41.0300 -74.0003 297° West 376 433 17,000 468 Level New York Center
Fri 09:50:18 PM 41.0539 -74.1086 286° West 384 442 18,600 1,785 Climbing New York Center
Fri 09:51:19 PM 41.0978 -74.2514 292° West 384 442 20,600 2,067 Climbing New York Center
Fri 09:52:17 PM 41.1472 -74.4053 293° West 394 453 22,700 1,729 Climbing New York Center
Fri 09:53:17 PM 41.1908 -74.5428 293° West 402 463 24,000 1,636 Climbing New York Center
Fri 09:54:18 PM 41.2322 -74.6803 292° West 402 463 26,000 1,587 Climbing New York Center
Fri 09:55:18 PM 41.2775 -74.8181 294° West 407 468 27,200 1,109 Climbing New York Center
Fri 09:56:17 PM 41.3167 -74.9558 291° West 417 480 28,200 1,250 Climbing New York Center
Fri 09:57:18 PM 41.3594 -75.0939 292° West 417 480 29,700 1,537 Climbing New York Center
Fri 09:58:18 PM 41.4022 -75.2350 292° West 417 480 31,300 1,513 Climbing New York Center
Fri 09:59:17 PM 41.4408 -75.3678 291° West 406 467 32,700 1,261 Climbing New York Center
Fri 10:00:17 PM 41.4794 -75.5003 291° West 394 453 33,800 1,041 Climbing New York Center
Fri 10:01:18 PM 41.5178 -75.6306 291° West 387 445 34,800 893 Climbing New York Center
Fri 10:02:18 PM 41.5561 -75.7636 291° West 387 445 35,600 605 Climbing New York Center
Fri 10:03:17 PM 41.5942 -75.8942 291° West 381 438 36,000 198 Climbing New York Center
Fri 10:04:19 PM 41.6319 -76.0303 290° West 386 444 36,000  Level New York Center
Fri 10:05:19 PM 41.6717 -76.1667 291° West 391 450 36,000  Level New York Center
Fri 10:06:16 PM 41.7144 -76.3228 290° West 402 463 36,000  Level New York Center
Fri 10:07:16 PM 41.7533 -76.4681 290° West 402 463 36,000  Level New York Center
Fri 10:08:17 PM 41.7889 -76.5933 291° West 402 463 36,000  Level New York Center
Fri 10:10:34 PM 41.8833 -76.9347 290° West 403 464 36,000  Level Cleveland Center
Fri 10:11:34 PM 41.9233 -77.0778 291° West 403 464 36,000  Level Cleveland Center
Fri 10:12:34 PM 41.9589 -77.2211 288° West 408 470 36,000  Level Cleveland Center
Fri 10:13:34 PM 42.0006 -77.3669 291° West 408 470 36,000  Level Cleveland Center
Fri 10:14:34 PM 42.0353 -77.4967 290° West 408 470 36,000  Level Cleveland Center
Fri 10:15:34 PM 42.0725 -77.6403 289° West 408 470 36,000  Level Cleveland Center
Fri 10:16:34 PM 42.1117 -77.7897 290° West 413 475 36,000  Level Cleveland Center
Fri 10:17:34 PM 42.1506 -77.9364 290° West 418 481 36,000  Level Cleveland Center
Fri 10:18:34 PM 42.1892 -78.0833 290° West 418 481 36,000  Level Cleveland Center
Fri 10:19:34 PM 42.2278 -78.2278 290° West 418 481 36,000  Level Cleveland Center
Fri 10:20:34 PM 42.2661 -78.3778 289° West 418 481 36,000  Level Cleveland Center
Fri 10:21:34 PM 42.3042 -78.5253 289° West 423 487 36,000  Level Cleveland Center
Fri 10:22:34 PM 42.3425 -78.6786 289° West 423 487 36,000  Level Cleveland Center
Fri 10:23:34 PM 42.3803 -78.8264 289° West 418 481 36,000  Level Cleveland Center
Fri 10:24:34 PM 42.4158 -78.9772 288° West 418 481 36,000  Level Cleveland Center
Fri 10:25:34 PM 42.4531 -79.1311 288° West 423 487 36,000  Level Cleveland Center
Fri 10:26:34 PM 42.4925 -79.2822 290° West 423 487 36,000  Level Cleveland Center
Fri 10:27:34 PM 42.5003 -79.4342 274° West 417 480 36,000  Level Cleveland Center
Fri 10:28:34 PM 42.5081 -79.5861 274° West 407 468 36,000  Level Cleveland Center
Fri 10:29:34 PM 42.5156 -79.7381 274° West 407 468 36,000  Level Cleveland Center
Fri 10:30:34 PM 42.5247 -79.8931 275° West 407 468 36,000  Level Cleveland Center
Fri 10:31:34 PM 42.5256 -80.0450 270° West 407 468 36,000  Level Cleveland Center
Fri 10:32:34 PM 42.5325 -80.1972 274° West 407 468 36,000  Level Cleveland Center
Fri 10:33:34 PM 42.5392 -80.3522 273° West 407 468 36,000  Level Cleveland Center
Fri 10:34:34 PM 42.5436 -80.5042 272° West 407 468 36,000  Level Cleveland Center
Fri 10:35:34 PM 42.5519 -80.6733 274° West 401 461 36,000  Level Cleveland Center
Fri 10:36:34 PM 42.5578 -80.8256 273° West 406 467 36,000  Level Cleveland Center
Fri 10:37:34 PM 42.5636 -80.9750 273° West 406 467 36,000  Level Cleveland Center
Fri 10:38:34 PM 42.5694 -81.1300 273° West 411 473 36,000  Level Cleveland Center
Fri 10:39:34 PM 42.5747 -81.2825 273° West 406 467 36,000  Level Cleveland Center
Fri 10:40:34 PM 42.5800 -81.4319 273° West 406 467 36,000  Level Cleveland Center
Fri 10:41:34 PM 42.6058 -81.5789 283° West 405 466 36,000  Level Cleveland Center
Fri 10:42:34 PM 42.6317 -81.7289 283° West 414 476 36,000  Level Cleveland Center
Fri 10:43:34 PM 42.6572 -81.8761 283° West 409 471 36,000  Level Cleveland Center
Fri 10:44:34 PM 42.6844 -82.0264 284° West 409 471 36,000  Level Cleveland Center
Fri 10:45:34 PM 42.7078 -82.1739 282° West 409 471 36,000  Level Cleveland Center
Fri 10:46:34 PM 42.7325 -82.3272 282° West 409 471 36,000  Level Cleveland Center
Fri 10:47:34 PM 42.7467 -82.4803 277° West 414 476 36,000  Level Cleveland Center
Fri 10:48:34 PM 42.7589 -82.6278 276° West 408 470 36,000  Level Cleveland Center
Fri 10:49:34 PM 42.7686 -82.7778 275° West 408 470 36,000  Level Cleveland Center
Fri 10:50:34 PM 42.7781 -82.9281 275° West 408 470 36,000  Level Cleveland Center
Fri 10:51:34 PM 42.7897 -83.0728 276° West 403 464 36,000  Level Cleveland Center
Fri 10:52:34 PM 42.8008 -83.2233 276° West 403 464 36,000  Level Cleveland Center
Fri 10:53:34 PM 42.8097 -83.3767 275° West 408 470 36,000  Level Cleveland Center
Fri 10:54:34 PM 42.8186 -83.5269 275° West 408 470 36,000  Level Cleveland Center
Fri 10:55:34 PM 42.8275 -83.6633 275° West 408 470 36,000  Level Cleveland Center
Fri 10:56:34 PM 42.8381 -83.8111 276° West 408 470 36,000  Level Cleveland Center
Fri 10:57:34 PM 42.8483 -83.9589 275° West 408 470 36,000 -32 Level Cleveland Center
Fri 10:59:39 PM 42.8667 -84.2744 275° West 406 467 35,900 -710 Descending Chicago Center
Fri 11:00:40 PM 42.8750 -84.4264 274° West 405 466 33,800 -1,918 Descending Chicago Center
Fri 11:01:41 PM 42.8828 -84.5778 274° West 401 461 32,000 -878 Descending Chicago Center
Fri 11:02:43 PM 42.8689 -84.7322 263° West 410 472 32,000  Level Chicago Center
Fri 11:03:44 PM 42.8517 -84.8861 261° West 412 474 32,000  Level Chicago Center
Fri 11:04:45 PM 42.8331 -85.0697 262° West 409 471 32,000  Level Chicago Center
Fri 11:05:46 PM 42.8164 -85.2225 262° West 409 471 32,000  Level Chicago Center
Fri 11:06:47 PM 42.8000 -85.3753 262° West 408 470 32,000 -344 Level Chicago Center
Fri 11:07:48 PM 42.7822 -85.5278 261° West 407 468 31,300 -1,426 Descending Chicago Center
Fri 11:08:49 PM 42.7544 -85.6781 256° West 407 468 29,100 -2,000 Descending Chicago Center
Fri 11:09:51 PM 42.7272 -85.8308 256° West 413 475 27,200 -1,951 Descending Chicago Center
Fri 11:10:52 PM 42.7003 -85.9800 256° West 405 466 25,100 -2,459 Descending Chicago Center
Fri 11:11:53 PM 42.6733 -86.1236 256° West 394 453 22,200 -2,410 Descending Chicago Center
Fri 11:12:54 PM 42.6467 -86.2656 256° West 388 447 20,200 -1,770 Descending Chicago Center
Fri 11:13:55 PM 42.6222 -86.3978 256° West 366 421 18,600 -1,377 Descending Chicago Center
Fri 11:14:56 PM 42.5964 -86.5317 255° West 366 421 17,400 -1,230 Descending Chicago Center
Fri 11:15:57 PM 42.5711 -86.6642 256° West 364 419 16,100 -1,230 Descending Chicago Center
Fri 11:16:58 PM 42.5428 -86.7964 254° West 366 421 14,900 -1,180 Descending Chicago Center
Fri 11:17:59 PM 42.5061 -86.9244 249° West 365 420 13,700 -1,317 Descending Chicago Center
Fri 11:19:01 PM 42.4644 -87.0764 250° West 360 414 12,200 -1,317 Descending Chicago Center
Fri 11:20:02 PM 42.4300 -87.2022 250° West 358 412 11,000 -1,082 Descending Chicago Center
Fri 11:21:03 PM 42.3953 -87.3275 249° West 358 412 10,000 -492 Descending Chicago Center
Fri 11:22:04 PM 42.3642 -87.4439 250° West 366 421 10,000  Level Chicago Center
Fri 11:23:05 PM 42.3147 -87.5625 241° Southwest 372 428 10,000  Level Chicago Center
Fri 11:24:06 PM 42.2169 -87.6661 218° Southwest 374 430 10,000 -49 Level Chicago Center
Fri 11:25:07 PM 42.1350 -87.7508 217° Southwest 373 429 9,900 -103 Descending Chicago Center
Fri 11:26:02 PM 42.1000 -87.8333 240° Southwest 300 345 9,800 -1,096 Descending Chicago TRACON
Fri 11:27:02 PM 42.1000 -87.9500 270° West 280 322 7,800 -1,895 Descending Chicago TRACON
Fri 11:27:56 PM 42.1000 -88.0333 270° West 267 307 6,200 -2,000 Descending Chicago TRACON
Fri 11:28:50 PM 42.0833 -88.1333 257° West 271 312 4,200 -1,760 Descending Chicago TRACON
Fri 11:29:11 PM 42.0839 -88.1519 272° West 270 311 4,000 -220 Descending Chicago Center
Fri 11:30:12 PM 42.0394 -88.2089 224° Southwest 261 300 3,900  Descending Chicago Center
Fri 11:31:13 PM 41.9781 -88.1992 173° South 226 260 4,000 -148 Climbing Chicago Center
Fri 11:32:14 PM 41.9672 -88.1306 102° East 199 229 3,600 -716 Descending Chicago Center
Fri 11:33:02 PM 41.9667 -88.0667 91° East 172 198 2,700 -1,059 Descending Chicago TRACON
Fri 11:33:56 PM 41.9667 -88.0000 90° East 173 199 1,800 -1,000 Descending Chicago TRACON

Login

Don't have an account? Register now (free) for customized features, flight alerts, and more!